sensor_id;sensor_type;location;lat;lon;timestamp;P1;durP1;ratioP1;P2;durP2;ratioP2
61104;SDS011;46987;32.638;-115.438;2023-05-10T00:00:30;18.42;;;3.85;;
61104;SDS011;46987;32.638;-115.438;2023-05-10T00:02:57;14.48;;;3.25;;
61104;SDS011;46987;32.638;-115.438;2023-05-10T00:05:23;13.60;;;3.47;;
61104;SDS011;46987;32.638;-115.438;2023-05-10T00:07:50;31.85;;;4.35;;
61104;SDS011;46987;32.638;-115.438;2023-05-10T00:10:18;14.80;;;4.00;;
61104;SDS011;46987;32.638;-115.438;2023-05-10T00:12:45;10.85;;;3.25;;
61104;SDS011;46987;32.638;-115.438;2023-05-10T00:15:12;13.18;;;3.38;;
61104;SDS011;46987;32.638;-115.438;2023-05-10T00:17:39;10.98;;;3.22;;
61104;SDS011;46987;32.638;-115.438;2023-05-10T00:20:06;10.27;;;3.20;;
61104;SDS011;46987;32.638;-115.438;2023-05-10T00:22:33;12.38;;;3.38;;
61104;SDS011;46987;32.638;-115.438;2023-05-10T00:24:59;10.95;;;3.10;;
61104;SDS011;46987;32.638;-115.438;2023-05-10T00:27:27;7.57;;;2.55;;
61104;SDS011;46987;32.638;-115.438;2023-05-10T00:29:54;13.90;;;3.58;;
61104;SDS011;46987;32.638;-115.438;2023-05-10T00:32:21;15.30;;;4.30;;
61104;SDS011;46987;32.638;-115.438;2023-05-10T00:34:47;8.93;;;2.30;;
61104;SDS011;46987;32.638;-115.438;2023-05-10T00:37:14;8.15;;;2.50;;
61104;SDS011;46987;32.638;-115.438;2023-05-10T00:39:40;13.40;;;2.55;;
61104;SDS011;46987;32.638;-115.438;2023-05-10T00:42:07;12.18;;;3.00;;
61104;SDS011;46987;32.638;-115.438;2023-05-10T00:44:36;13.52;;;2.88;;
61104;SDS011;46987;32.638;-115.438;2023-05-10T00:47:03;12.30;;;2.78;;
61104;SDS011;46987;32.638;-115.438;2023-05-10T00:49:30;17.75;;;3.03;;
61104;SDS011;46987;32.638;-115.438;2023-05-10T00:51:57;25.42;;;4.15;;
61104;SDS011;46987;32.638;-115.438;2023-05-10T00:54:23;25.50;;;4.57;;
61104;SDS011;46987;32.638;-115.438;2023-05-10T00:56:51;14.85;;;2.90;;
61104;SDS011;46987;32.638;-115.438;2023-05-10T00:59:17;14.63;;;2.80;;
61104;SDS011;46987;32.638;-115.438;2023-05-10T01:01:46;8.68;;;2.00;;
61104;SDS011;46987;32.638;-115.438;2023-05-10T01:04:13;20.48;;;2.80;;
61104;SDS011;46987;32.638;-115.438;2023-05-10T01:06:41;11.07;;;2.40;;
61104;SDS011;46987;32.638;-115.438;2023-05-10T01:09:08;13.55;;;2.20;;
61104;SDS011;46987;32.638;-115.438;2023-05-10T01:11:34;9.50;;;2.13;;
61104;SDS011;46987;32.638;-115.438;2023-05-10T01:14:01;13.45;;;2.72;;
61104;SDS011;46987;32.638;-115.438;2023-05-10T01:16:28;15.02;;;2.45;;
61104;SDS011;46987;32.638;-115.438;2023-05-10T01:18:58;10.77;;;2.40;;
61104;SDS011;46987;32.638;-115.438;2023-05-10T01:21:27;20.83;;;2.67;;
61104;SDS011;46987;32.638;-115.438;2023-05-10T01:24:10;12.77;;;2.60;;
61104;SDS011;46987;32.638;-115.438;2023-05-10T01:26:48;11.90;;;2.80;;
61104;SDS011;46987;32.638;-115.438;2023-05-10T01:32:13;7.38;;;2.20;;
61104;SDS011;46987;32.638;-115.438;2023-05-10T01:34:45;10.65;;;3.03;;
61104;SDS011;46987;32.638;-115.438;2023-05-10T01:37:15;11.90;;;2.63;;
61104;SDS011;46987;32.638;-115.438;2023-05-10T01:39:44;14.45;;;2.40;;
61104;SDS011;46987;32.638;-115.438;2023-05-10T01:42:14;8.63;;;2.05;;
61104;SDS011;46987;32.638;-115.438;2023-05-10T01:47:10;12.75;;;2.60;;
61104;SDS011;46987;32.638;-115.438;2023-05-10T01:49:41;15.43;;;2.30;;
61104;SDS011;46987;32.638;-115.438;2023-05-10T01:52:09;10.50;;;2.40;;
61104;SDS011;46987;32.638;-115.438;2023-05-10T01:54:37;6.25;;;2.20;;
61104;SDS011;46987;32.638;-115.438;2023-05-10T01:57:05;12.48;;;2.50;;
61104;SDS011;46987;32.638;-115.438;2023-05-10T01:59:35;9.13;;;2.05;;
61104;SDS011;46987;32.638;-115.438;2023-05-10T02:02:05;7.80;;;2.20;;
61104;SDS011;46987;32.638;-115.438;2023-05-10T02:04:32;7.97;;;2.00;;
61104;SDS011;46987;32.638;-115.438;2023-05-10T02:07:01;8.38;;;2.10;;
61104;SDS011;46987;32.638;-115.438;2023-05-10T02:09:28;10.13;;;2.42;;
61104;SDS011;46987;32.638;-115.438;2023-05-10T02:11:56;8.07;;;2.13;;
61104;SDS011;46987;32.638;-115.438;2023-05-10T02:14:24;6.95;;;2.50;;
61104;SDS011;46987;32.638;-115.438;2023-05-10T02:16:52;11.15;;;2.10;;
61104;SDS011;46987;32.638;-115.438;2023-05-10T02:19:20;9.40;;;2.35;;
61104;SDS011;46987;32.638;-115.438;2023-05-10T02:21:48;7.93;;;2.70;;
61104;SDS011;46987;32.638;-115.438;2023-05-10T02:24:20;6.95;;;1.92;;
61104;SDS011;46987;32.638;-115.438;2023-05-10T02:26:48;10.35;;;2.20;;
61104;SDS011;46987;32.638;-115.438;2023-05-10T02:29:16;11.70;;;2.47;;
61104;SDS011;46987;32.638;-115.438;2023-05-10T02:31:43;9.77;;;2.58;;
61104;SDS011;46987;32.638;-115.438;2023-05-10T02:34:10;10.25;;;2.45;;
61104;SDS011;46987;32.638;-115.438;2023-05-10T02:36:39;11.98;;;2.47;;
61104;SDS011;46987;32.638;-115.438;2023-05-10T02:39:06;8.73;;;2.88;;
61104;SDS011;46987;32.638;-115.438;2023-05-10T02:41:37;12.18;;;2.60;;
61104;SDS011;46987;32.638;-115.438;2023-05-10T02:44:05;9.45;;;2.90;;
61104;SDS011;46987;32.638;-115.438;2023-05-10T02:46:33;9.68;;;2.30;;
61104;SDS011;46987;32.638;-115.438;2023-05-10T02:49:01;11.15;;;2.72;;
61104;SDS011;46987;32.638;-115.438;2023-05-10T02:51:30;10.00;;;2.35;;
61104;SDS011;46987;32.638;-115.438;2023-05-10T02:54:00;8.68;;;2.13;;
61104;SDS011;46987;32.638;-115.438;2023-05-10T02:56:29;6.97;;;2.20;;
61104;SDS011;46987;32.638;-115.438;2023-05-10T02:58:59;11.00;;;2.75;;
61104;SDS011;46987;32.638;-115.438;2023-05-10T03:01:26;9.55;;;2.28;;
61104;SDS011;46987;32.638;-115.438;2023-05-10T03:03:53;8.35;;;2.15;;
61104;SDS011;46987;32.638;-115.438;2023-05-10T03:06:19;12.88;;;2.35;;
61104;SDS011;46987;32.638;-115.438;2023-05-10T03:08:46;12.18;;;2.72;;
61104;SDS011;46987;32.638;-115.438;2023-05-10T03:11:16;19.33;;;2.75;;
61104;SDS011;46987;32.638;-115.438;2023-05-10T03:13:48;11.50;;;2.22;;
61104;SDS011;46987;32.638;-115.438;2023-05-10T03:16:21;16.77;;;3.35;;
61104;SDS011;46987;32.638;-115.438;2023-05-10T03:18:50;13.38;;;2.53;;
61104;SDS011;46987;32.638;-115.438;2023-05-10T03:21:21;10.95;;;2.38;;
61104;SDS011;46987;32.638;-115.438;2023-05-10T03:23:50;12.95;;;2.95;;
61104;SDS011;46987;32.638;-115.438;2023-05-10T03:26:17;16.95;;;2.97;;
61104;SDS011;46987;32.638;-115.438;2023-05-10T03:28:47;12.45;;;2.67;;
61104;SDS011;46987;32.638;-115.438;2023-05-10T03:31:14;10.88;;;2.38;;
61104;SDS011;46987;32.638;-115.438;2023-05-10T03:33:52;11.02;;;2.60;;
61104;SDS011;46987;32.638;-115.438;2023-05-10T03:36:25;22.30;;;3.20;;
61104;SDS011;46987;32.638;-115.438;2023-05-10T03:38:53;13.73;;;2.33;;
61104;SDS011;46987;32.638;-115.438;2023-05-10T03:41:19;14.45;;;2.88;;
61104;SDS011;46987;32.638;-115.438;2023-05-10T03:43:50;16.52;;;2.55;;
61104;SDS011;46987;32.638;-115.438;2023-05-10T03:46:17;8.23;;;2.45;;
61104;SDS011;46987;32.638;-115.438;2023-05-10T03:48:44;10.40;;;2.70;;
61104;SDS011;46987;32.638;-115.438;2023-05-10T03:51:13;9.43;;;2.42;;
61104;SDS011;46987;32.638;-115.438;2023-05-10T03:53:39;13.70;;;2.72;;
61104;SDS011;46987;32.638;-115.438;2023-05-10T03:56:06;11.18;;;2.70;;
61104;SDS011;46987;32.638;-115.438;2023-05-10T03:58:33;12.77;;;2.65;;
61104;SDS011;46987;32.638;-115.438;2023-05-10T04:00:59;12.85;;;2.80;;
61104;SDS011;46987;32.638;-115.438;2023-05-10T04:03:26;12.60;;;2.80;;
61104;SDS011;46987;32.638;-115.438;2023-05-10T04:05:58;11.32;;;3.42;;
61104;SDS011;46987;32.638;-115.438;2023-05-10T04:08:28;19.95;;;2.90;;
61104;SDS011;46987;32.638;-115.438;2023-05-10T04:10:55;16.45;;;3.50;;
61104;SDS011;46987;32.638;-115.438;2023-05-10T04:13:30;17.08;;;3.35;;
61104;SDS011;46987;32.638;-115.438;2023-05-10T04:15:57;10.70;;;2.65;;
61104;SDS011;46987;32.638;-115.438;2023-05-10T04:18:23;12.20;;;2.95;;
61104;SDS011;46987;32.638;-115.438;2023-05-10T04:20:50;16.10;;;3.20;;
61104;SDS011;46987;32.638;-115.438;2023-05-10T04:23:16;24.83;;;3.00;;
61104;SDS011;46987;32.638;-115.438;2023-05-10T04:25:45;21.40;;;4.43;;
61104;SDS011;46987;32.638;-115.438;2023-05-10T04:28:12;20.20;;;3.40;;
61104;SDS011;46987;32.638;-115.438;2023-05-10T04:30:39;40.35;;;5.85;;
61104;SDS011;46987;32.638;-115.438;2023-05-10T04:33:06;68.85;;;8.95;;
61104;SDS011;46987;32.638;-115.438;2023-05-10T04:35:33;66.20;;;8.80;;
61104;SDS011;46987;32.638;-115.438;2023-05-10T04:38:00;96.78;;;12.07;;
61104;SDS011;46987;32.638;-115.438;2023-05-10T04:40:26;83.13;;;9.88;;
61104;SDS011;46987;32.638;-115.438;2023-05-10T04:42:55;82.72;;;11.25;;
61104;SDS011;46987;32.638;-115.438;2023-05-10T04:45:21;62.72;;;9.32;;
61104;SDS011;46987;32.638;-115.438;2023-05-10T04:47:48;51.95;;;5.97;;
61104;SDS011;46987;32.638;-115.438;2023-05-10T04:50:15;45.03;;;6.05;;
61104;SDS011;46987;32.638;-115.438;2023-05-10T04:52:42;47.05;;;7.07;;
61104;SDS011;46987;32.638;-115.438;2023-05-10T04:55:08;51.63;;;7.15;;
61104;SDS011;46987;32.638;-115.438;2023-05-10T04:57:36;56.30;;;6.88;;
61104;SDS011;46987;32.638;-115.438;2023-05-10T05:00:04;38.55;;;5.53;;
61104;SDS011;46987;32.638;-115.438;2023-05-10T05:02:31;39.08;;;5.07;;
61104;SDS011;46987;32.638;-115.438;2023-05-10T05:04:58;37.95;;;5.43;;
61104;SDS011;46987;32.638;-115.438;2023-05-10T05:07:24;23.73;;;3.38;;
61104;SDS011;46987;32.638;-115.438;2023-05-10T05:09:51;19.50;;;2.72;;
61104;SDS011;46987;32.638;-115.438;2023-05-10T05:12:17;14.00;;;2.60;;
61104;SDS011;46987;32.638;-115.438;2023-05-10T05:14:44;11.32;;;2.20;;
61104;SDS011;46987;32.638;-115.438;2023-05-10T05:17:13;10.40;;;2.55;;
61104;SDS011;46987;32.638;-115.438;2023-05-10T05:19:40;12.52;;;1.98;;
61104;SDS011;46987;32.638;-115.438;2023-05-10T05:22:06;19.48;;;2.58;;
61104;SDS011;46987;32.638;-115.438;2023-05-10T05:24:35;14.60;;;2.53;;
61104;SDS011;46987;32.638;-115.438;2023-05-10T05:27:02;8.25;;;1.83;;
61104;SDS011;46987;32.638;-115.438;2023-05-10T05:29:29;14.93;;;2.17;;
61104;SDS011;46987;32.638;-115.438;2023-05-10T05:31:55;16.05;;;2.50;;
61104;SDS011;46987;32.638;-115.438;2023-05-10T05:34:24;31.88;;;3.42;;
61104;SDS011;46987;32.638;-115.438;2023-05-10T05:36:51;21.67;;;3.08;;
61104;SDS011;46987;32.638;-115.438;2023-05-10T05:39:17;18.15;;;2.58;;
61104;SDS011;46987;32.638;-115.438;2023-05-10T05:41:44;17.10;;;2.67;;
61104;SDS011;46987;32.638;-115.438;2023-05-10T05:44:12;19.38;;;3.00;;
61104;SDS011;46987;32.638;-115.438;2023-05-10T05:46:38;19.02;;;2.85;;
61104;SDS011;46987;32.638;-115.438;2023-05-10T05:49:05;10.70;;;1.77;;
61104;SDS011;46987;32.638;-115.438;2023-05-10T05:51:33;14.77;;;1.95;;
61104;SDS011;46987;32.638;-115.438;2023-05-10T05:54:01;22.42;;;3.30;;
61104;SDS011;46987;32.638;-115.438;2023-05-10T05:56:30;23.27;;;3.05;;
61104;SDS011;46987;32.638;-115.438;2023-05-10T05:58:56;15.98;;;2.53;;
61104;SDS011;46987;32.638;-115.438;2023-05-10T06:01:23;18.38;;;2.03;;
61104;SDS011;46987;32.638;-115.438;2023-05-10T06:03:49;10.90;;;1.90;;
61104;SDS011;46987;32.638;-115.438;2023-05-10T06:06:16;13.75;;;2.08;;
61104;SDS011;46987;32.638;-115.438;2023-05-10T06:08:44;15.20;;;2.30;;
61104;SDS011;46987;32.638;-115.438;2023-05-10T06:11:11;19.20;;;3.33;;
61104;SDS011;46987;32.638;-115.438;2023-05-10T06:13:37;32.40;;;4.47;;
61104;SDS011;46987;32.638;-115.438;2023-05-10T06:16:04;17.75;;;2.60;;
61104;SDS011;46987;32.638;-115.438;2023-05-10T06:18:31;19.73;;;2.80;;
61104;SDS011;46987;32.638;-115.438;2023-05-10T06:20:58;16.33;;;2.40;;
61104;SDS011;46987;32.638;-115.438;2023-05-10T06:23:24;32.42;;;4.07;;
61104;SDS011;46987;32.638;-115.438;2023-05-10T06:25:53;22.25;;;3.40;;
61104;SDS011;46987;32.638;-115.438;2023-05-10T06:28:19;25.27;;;3.78;;
61104;SDS011;46987;32.638;-115.438;2023-05-10T06:30:46;20.15;;;4.65;;
61104;SDS011;46987;32.638;-115.438;2023-05-10T06:33:13;21.38;;;3.50;;
61104;SDS011;46987;32.638;-115.438;2023-05-10T06:35:42;16.83;;;3.28;;
61104;SDS011;46987;32.638;-115.438;2023-05-10T06:38:08;14.63;;;3.13;;
61104;SDS011;46987;32.638;-115.438;2023-05-10T06:40:35;22.58;;;3.45;;
61104;SDS011;46987;32.638;-115.438;2023-05-10T06:43:03;16.25;;;3.15;;
61104;SDS011;46987;32.638;-115.438;2023-05-10T06:45:30;16.40;;;2.60;;
61104;SDS011;46987;32.638;-115.438;2023-05-10T06:47:57;14.10;;;3.13;;
61104;SDS011;46987;32.638;-115.438;2023-05-10T06:50:23;16.20;;;3.72;;
61104;SDS011;46987;32.638;-115.438;2023-05-10T06:52:50;40.67;;;4.40;;
61104;SDS011;46987;32.638;-115.438;2023-05-10T06:55:17;34.20;;;3.60;;
61104;SDS011;46987;32.638;-115.438;2023-05-10T06:57:43;34.67;;;4.38;;
61104;SDS011;46987;32.638;-115.438;2023-05-10T07:00:12;20.88;;;2.97;;
61104;SDS011;46987;32.638;-115.438;2023-05-10T07:02:38;15.07;;;2.85;;
61104;SDS011;46987;32.638;-115.438;2023-05-10T07:05:05;10.93;;;2.70;;
61104;SDS011;46987;32.638;-115.438;2023-05-10T07:07:32;15.32;;;2.45;;
61104;SDS011;46987;32.638;-115.438;2023-05-10T07:09:58;11.73;;;2.53;;
61104;SDS011;46987;32.638;-115.438;2023-05-10T07:12:25;18.85;;;3.13;;
61104;SDS011;46987;32.638;-115.438;2023-05-10T07:14:52;19.45;;;2.92;;
61104;SDS011;46987;32.638;-115.438;2023-05-10T07:17:20;13.35;;;2.72;;
61104;SDS011;46987;32.638;-115.438;2023-05-10T07:19:47;12.88;;;1.98;;
61104;SDS011;46987;32.638;-115.438;2023-05-10T07:22:13;8.30;;;2.00;;
61104;SDS011;46987;32.638;-115.438;2023-05-10T07:24:40;8.43;;;2.03;;
61104;SDS011;46987;32.638;-115.438;2023-05-10T07:27:09;11.60;;;2.45;;
61104;SDS011;46987;32.638;-115.438;2023-05-10T07:29:36;9.50;;;1.95;;
61104;SDS011;46987;32.638;-115.438;2023-05-10T07:32:03;9.68;;;1.67;;
61104;SDS011;46987;32.638;-115.438;2023-05-10T07:34:32;10.13;;;2.55;;
61104;SDS011;46987;32.638;-115.438;2023-05-10T07:36:58;11.02;;;2.05;;
61104;SDS011;46987;32.638;-115.438;2023-05-10T07:39:25;9.40;;;1.92;;
61104;SDS011;46987;32.638;-115.438;2023-05-10T07:41:52;7.20;;;2.10;;
61104;SDS011;46987;32.638;-115.438;2023-05-10T07:44:19;14.75;;;2.33;;
61104;SDS011;46987;32.638;-115.438;2023-05-10T07:46:46;11.63;;;2.08;;
61104;SDS011;46987;32.638;-115.438;2023-05-10T07:49:13;14.50;;;1.95;;
61104;SDS011;46987;32.638;-115.438;2023-05-10T07:51:41;8.75;;;2.08;;
61104;SDS011;46987;32.638;-115.438;2023-05-10T07:54:08;16.30;;;2.95;;
61104;SDS011;46987;32.638;-115.438;2023-05-10T07:56:35;14.98;;;2.28;;
61104;SDS011;46987;32.638;-115.438;2023-05-10T07:59:02;17.67;;;2.10;;
61104;SDS011;46987;32.638;-115.438;2023-05-10T08:01:30;13.13;;;1.63;;
61104;SDS011;46987;32.638;-115.438;2023-05-10T08:03:58;15.00;;;2.90;;
61104;SDS011;46987;32.638;-115.438;2023-05-10T08:06:24;12.85;;;2.30;;
61104;SDS011;46987;32.638;-115.438;2023-05-10T08:08:55;9.27;;;1.85;;
61104;SDS011;46987;32.638;-115.438;2023-05-10T08:11:22;15.80;;;2.17;;
61104;SDS011;46987;32.638;-115.438;2023-05-10T08:13:49;15.10;;;2.47;;
61104;SDS011;46987;32.638;-115.438;2023-05-10T08:16:16;15.45;;;2.72;;
61104;SDS011;46987;32.638;-115.438;2023-05-10T08:18:43;16.67;;;1.92;;
61104;SDS011;46987;32.638;-115.438;2023-05-10T08:21:10;16.65;;;2.33;;
61104;SDS011;46987;32.638;-115.438;2023-05-10T08:23:37;14.40;;;2.70;;
61104;SDS011;46987;32.638;-115.438;2023-05-10T08:26:06;12.30;;;1.60;;
61104;SDS011;46987;32.638;-115.438;2023-05-10T08:28:32;14.52;;;1.50;;
61104;SDS011;46987;32.638;-115.438;2023-05-10T08:30:59;12.98;;;1.65;;
61104;SDS011;46987;32.638;-115.438;2023-05-10T08:33:26;13.07;;;1.92;;
61104;SDS011;46987;32.638;-115.438;2023-05-10T08:35:52;7.18;;;1.20;;
61104;SDS011;46987;32.638;-115.438;2023-05-10T08:38:19;11.07;;;1.75;;
61104;SDS011;46987;32.638;-115.438;2023-05-10T08:40:45;10.85;;;1.60;;
61104;SDS011;46987;32.638;-115.438;2023-05-10T08:43:16;12.35;;;1.55;;
61104;SDS011;46987;32.638;-115.438;2023-05-10T08:45:43;27.17;;;2.83;;
61104;SDS011;46987;32.638;-115.438;2023-05-10T08:48:11;17.48;;;2.17;;
61104;SDS011;46987;32.638;-115.438;2023-05-10T08:50:38;20.33;;;3.05;;
61104;SDS011;46987;32.638;-115.438;2023-05-10T08:53:05;18.23;;;2.60;;
61104;SDS011;46987;32.638;-115.438;2023-05-10T08:55:32;19.73;;;2.40;;
61104;SDS011;46987;32.638;-115.438;2023-05-10T08:58:06;24.15;;;3.03;;
61104;SDS011;46987;32.638;-115.438;2023-05-10T09:00:34;20.83;;;3.15;;
61104;SDS011;46987;32.638;-115.438;2023-05-10T09:03:03;23.27;;;2.70;;
61104;SDS011;46987;32.638;-115.438;2023-05-10T09:05:30;21.67;;;2.72;;
61104;SDS011;46987;32.638;-115.438;2023-05-10T09:07:57;22.02;;;2.35;;
61104;SDS011;46987;32.638;-115.438;2023-05-10T09:10:26;22.27;;;2.72;;
61104;SDS011;46987;32.638;-115.438;2023-05-10T09:12:53;24.98;;;2.83;;
61104;SDS011;46987;32.638;-115.438;2023-05-10T09:15:22;20.92;;;3.38;;
61104;SDS011;46987;32.638;-115.438;2023-05-10T09:17:50;21.17;;;2.92;;
61104;SDS011;46987;32.638;-115.438;2023-05-10T09:20:17;16.67;;;2.38;;
61104;SDS011;46987;32.638;-115.438;2023-05-10T09:22:43;18.55;;;1.30;;
61104;SDS011;46987;32.638;-115.438;2023-05-10T09:25:17;18.73;;;1.95;;
61104;SDS011;46987;32.638;-115.438;2023-05-10T09:27:44;14.95;;;2.40;;
61104;SDS011;46987;32.638;-115.438;2023-05-10T09:30:14;8.50;;;1.55;;
61104;SDS011;46987;32.638;-115.438;2023-05-10T09:32:41;18.95;;;1.70;;
61104;SDS011;46987;32.638;-115.438;2023-05-10T09:35:11;16.35;;;2.15;;
61104;SDS011;46987;32.638;-115.438;2023-05-10T09:37:38;23.85;;;2.38;;
61104;SDS011;46987;32.638;-115.438;2023-05-10T09:40:07;12.70;;;1.60;;
61104;SDS011;46987;32.638;-115.438;2023-05-10T09:42:35;17.50;;;2.25;;
61104;SDS011;46987;32.638;-115.438;2023-05-10T09:45:03;13.25;;;1.27;;
61104;SDS011;46987;32.638;-115.438;2023-05-10T09:47:31;17.00;;;2.40;;
61104;SDS011;46987;32.638;-115.438;2023-05-10T09:49:58;12.00;;;1.85;;
61104;SDS011;46987;32.638;-115.438;2023-05-10T09:52:31;9.85;;;1.58;;
61104;SDS011;46987;32.638;-115.438;2023-05-10T09:55:11;8.23;;;1.25;;
61104;SDS011;46987;32.638;-115.438;2023-05-10T09:57:38;12.70;;;2.83;;
61104;SDS011;46987;32.638;-115.438;2023-05-10T10:00:05;9.05;;;1.27;;
61104;SDS011;46987;32.638;-115.438;2023-05-10T10:02:39;6.85;;;1.30;;
61104;SDS011;46987;32.638;-115.438;2023-05-10T10:05:06;5.75;;;1.92;;
61104;SDS011;46987;32.638;-115.438;2023-05-10T10:07:34;10.75;;;1.48;;
61104;SDS011;46987;32.638;-115.438;2023-05-10T10:10:02;7.43;;;1.30;;
61104;SDS011;46987;32.638;-115.438;2023-05-10T10:12:29;5.00;;;0.90;;
61104;SDS011;46987;32.638;-115.438;2023-05-10T10:14:57;5.15;;;1.00;;
61104;SDS011;46987;32.638;-115.438;2023-05-10T10:17:25;5.55;;;0.70;;
61104;SDS011;46987;32.638;-115.438;2023-05-10T10:19:54;3.67;;;0.77;;
61104;SDS011;46987;32.638;-115.438;2023-05-10T10:22:21;3.25;;;0.63;;
61104;SDS011;46987;32.638;-115.438;2023-05-10T10:24:50;1.50;;;0.50;;
61104;SDS011;46987;32.638;-115.438;2023-05-10T10:27:20;5.18;;;0.82;;
61104;SDS011;46987;32.638;-115.438;2023-05-10T10:29:51;6.93;;;1.08;;
61104;SDS011;46987;32.638;-115.438;2023-05-10T10:32:20;8.38;;;1.08;;
61104;SDS011;46987;32.638;-115.438;2023-05-10T10:34:48;9.80;;;1.35;;
61104;SDS011;46987;32.638;-115.438;2023-05-10T10:37:15;6.80;;;1.23;;
61104;SDS011;46987;32.638;-115.438;2023-05-10T10:39:41;14.68;;;2.03;;
61104;SDS011;46987;32.638;-115.438;2023-05-10T10:42:10;25.20;;;2.95;;
61104;SDS011;46987;32.638;-115.438;2023-05-10T10:44:37;16.83;;;2.25;;
61104;SDS011;46987;32.638;-115.438;2023-05-10T10:47:05;15.40;;;1.83;;
61104;SDS011;46987;32.638;-115.438;2023-05-10T10:49:37;14.02;;;1.90;;
61104;SDS011;46987;32.638;-115.438;2023-05-10T10:52:14;14.02;;;1.55;;
61104;SDS011;46987;32.638;-115.438;2023-05-10T10:54:47;13.07;;;1.98;;
61104;SDS011;46987;32.638;-115.438;2023-05-10T10:57:18;19.40;;;1.90;;
61104;SDS011;46987;32.638;-115.438;2023-05-10T10:59:44;19.25;;;2.05;;
61104;SDS011;46987;32.638;-115.438;2023-05-10T11:02:21;12.27;;;1.80;;
61104;SDS011;46987;32.638;-115.438;2023-05-10T11:04:58;8.02;;;1.38;;
61104;SDS011;46987;32.638;-115.438;2023-05-10T11:07:25;7.13;;;0.90;;
61104;SDS011;46987;32.638;-115.438;2023-05-10T11:09:52;8.00;;;1.65;;
61104;SDS011;46987;32.638;-115.438;2023-05-10T11:12:20;12.05;;;1.67;;
61104;SDS011;46987;32.638;-115.438;2023-05-10T11:14:49;10.27;;;0.80;;
61104;SDS011;46987;32.638;-115.438;2023-05-10T11:17:22;6.60;;;0.68;;
61104;SDS011;46987;32.638;-115.438;2023-05-10T11:20:08;5.82;;;0.80;;
61104;SDS011;46987;32.638;-115.438;2023-05-10T11:22:49;7.28;;;0.60;;
61104;SDS011;46987;32.638;-115.438;2023-05-10T11:25:19;8.25;;;1.00;;
61104;SDS011;46987;32.638;-115.438;2023-05-10T11:27:48;5.18;;;0.70;;
61104;SDS011;46987;32.638;-115.438;2023-05-10T11:30:15;3.95;;;0.63;;
61104;SDS011;46987;32.638;-115.438;2023-05-10T11:32:41;2.55;;;0.60;;
61104;SDS011;46987;32.638;-115.438;2023-05-10T11:35:08;4.75;;;0.73;;
61104;SDS011;46987;32.638;-115.438;2023-05-10T11:37:35;5.85;;;0.90;;
61104;SDS011;46987;32.638;-115.438;2023-05-10T11:40:02;7.63;;;1.00;;
61104;SDS011;46987;32.638;-115.438;2023-05-10T11:42:29;3.83;;;0.98;;
61104;SDS011;46987;32.638;-115.438;2023-05-10T11:44:57;5.82;;;1.55;;
61104;SDS011;46987;32.638;-115.438;2023-05-10T11:47:26;3.92;;;0.90;;
61104;SDS011;46987;32.638;-115.438;2023-05-10T11:49:53;6.70;;;1.50;;
61104;SDS011;46987;32.638;-115.438;2023-05-10T11:52:19;8.27;;;1.52;;
61104;SDS011;46987;32.638;-115.438;2023-05-10T11:54:50;3.72;;;0.90;;
61104;SDS011;46987;32.638;-115.438;2023-05-10T11:57:18;3.25;;;0.70;;
61104;SDS011;46987;32.638;-115.438;2023-05-10T11:59:44;5.15;;;1.38;;
61104;SDS011;46987;32.638;-115.438;2023-05-10T12:02:13;2.08;;;0.57;;
61104;SDS011;46987;32.638;-115.438;2023-05-10T12:04:39;5.38;;;0.80;;
61104;SDS011;46987;32.638;-115.438;2023-05-10T12:07:07;5.03;;;1.10;;
61104;SDS011;46987;32.638;-115.438;2023-05-10T12:09:33;6.82;;;1.52;;
61104;SDS011;46987;32.638;-115.438;2023-05-10T12:12:00;5.18;;;1.15;;
61104;SDS011;46987;32.638;-115.438;2023-05-10T12:14:28;9.02;;;1.38;;
61104;SDS011;46987;32.638;-115.438;2023-05-10T12:16:59;5.60;;;1.23;;
61104;SDS011;46987;32.638;-115.438;2023-05-10T12:19:27;5.43;;;1.00;;
61104;SDS011;46987;32.638;-115.438;2023-05-10T12:21:54;7.00;;;1.30;;
61104;SDS011;46987;32.638;-115.438;2023-05-10T12:24:21;5.40;;;1.17;;
61104;SDS011;46987;32.638;-115.438;2023-05-10T12:26:48;4.60;;;1.20;;
61104;SDS011;46987;32.638;-115.438;2023-05-10T12:29:15;8.20;;;1.42;;
61104;SDS011;46987;32.638;-115.438;2023-05-10T12:31:51;7.10;;;1.10;;
61104;SDS011;46987;32.638;-115.438;2023-05-10T12:34:25;8.70;;;1.00;;
61104;SDS011;46987;32.638;-115.438;2023-05-10T12:36:53;6.35;;;1.02;;
61104;SDS011;46987;32.638;-115.438;2023-05-10T12:39:20;4.53;;;0.80;;
61104;SDS011;46987;32.638;-115.438;2023-05-10T12:41:47;8.02;;;0.90;;
61104;SDS011;46987;32.638;-115.438;2023-05-10T12:44:13;8.45;;;0.93;;
61104;SDS011;46987;32.638;-115.438;2023-05-10T12:46:40;3.20;;;1.08;;
61104;SDS011;46987;32.638;-115.438;2023-05-10T12:49:07;5.43;;;0.90;;
61104;SDS011;46987;32.638;-115.438;2023-05-10T12:51:34;8.68;;;1.05;;
61104;SDS011;46987;32.638;-115.438;2023-05-10T12:54:03;8.32;;;1.52;;
61104;SDS011;46987;32.638;-115.438;2023-05-10T12:56:31;11.38;;;2.38;;
61104;SDS011;46987;32.638;-115.438;2023-05-10T12:58:58;6.55;;;1.50;;
61104;SDS011;46987;32.638;-115.438;2023-05-10T13:01:25;5.82;;;1.17;;
61104;SDS011;46987;32.638;-115.438;2023-05-10T13:03:52;8.90;;;1.67;;
61104;SDS011;46987;32.638;-115.438;2023-05-10T13:06:19;5.43;;;0.98;;
61104;SDS011;46987;32.638;-115.438;2023-05-10T13:08:46;10.45;;;1.38;;
61104;SDS011;46987;32.638;-115.438;2023-05-10T13:11:17;11.40;;;2.05;;
61104;SDS011;46987;32.638;-115.438;2023-05-10T13:13:46;6.13;;;1.13;;
61104;SDS011;46987;32.638;-115.438;2023-05-10T13:16:13;6.00;;;1.10;;
61104;SDS011;46987;32.638;-115.438;2023-05-10T13:18:40;10.60;;;1.70;;
61104;SDS011;46987;32.638;-115.438;2023-05-10T13:21:07;7.32;;;1.42;;
61104;SDS011;46987;32.638;-115.438;2023-05-10T13:23:35;10.07;;;1.25;;
61104;SDS011;46987;32.638;-115.438;2023-05-10T13:26:02;5.85;;;1.05;;
61104;SDS011;46987;32.638;-115.438;2023-05-10T13:28:32;14.00;;;1.38;;
61104;SDS011;46987;32.638;-115.438;2023-05-10T13:30:59;7.78;;;1.00;;
61104;SDS011;46987;32.638;-115.438;2023-05-10T13:33:27;8.77;;;1.33;;
61104;SDS011;46987;32.638;-115.438;2023-05-10T13:35:54;7.72;;;1.35;;
61104;SDS011;46987;32.638;-115.438;2023-05-10T13:38:22;10.18;;;1.05;;
61104;SDS011;46987;32.638;-115.438;2023-05-10T13:40:49;3.33;;;0.65;;
61104;SDS011;46987;32.638;-115.438;2023-05-10T13:43:19;3.38;;;0.93;;
61104;SDS011;46987;32.638;-115.438;2023-05-10T13:45:48;6.72;;;1.05;;
61104;SDS011;46987;32.638;-115.438;2023-05-10T13:48:15;8.93;;;1.23;;
61104;SDS011;46987;32.638;-115.438;2023-05-10T13:50:43;7.10;;;0.90;;
61104;SDS011;46987;32.638;-115.438;2023-05-10T13:53:10;5.70;;;1.17;;
61104;SDS011;46987;32.638;-115.438;2023-05-10T13:55:38;6.97;;;1.60;;
61104;SDS011;46987;32.638;-115.438;2023-05-10T13:58:05;5.97;;;0.90;;
61104;SDS011;46987;32.638;-115.438;2023-05-10T14:00:33;5.32;;;1.00;;
61104;SDS011;46987;32.638;-115.438;2023-05-10T14:03:02;7.25;;;1.00;;
61104;SDS011;46987;32.638;-115.438;2023-05-10T14:05:31;4.78;;;1.20;;
61104;SDS011;46987;32.638;-115.438;2023-05-10T14:07:59;6.57;;;1.30;;
61104;SDS011;46987;32.638;-115.438;2023-05-10T14:10:26;7.07;;;1.23;;